Terminal Aerodrome Forecast
Issued by NWS Chicago, IL

Home | Current Version | Previous Version | Graphics & Text | Print | Product List | Glossary On
Versions: 1 2 3 4 5 6 7 8 9 10 11 12 13 14 15 16 17 18 19 20 21 22 23 24 25 26 27 28 29 30 31 32 33
000
FTUS43 KLOT 161100
TAFRFD
TAF
KRFD 161137Z 1612/1712 33006KT 1SM -SHRA BR OVC003
     FM161400 32011KT 2SM -SHRA BR OVC005
     FM161600 31016G25KT P6SM VCSH OVC009
     FM161800 31017G27KT P6SM OVC015
     FM170100 30015G22KT P6SM OVC025
     FM170700 30011KT P6SM BKN030=

USA.gov is the U.S. government's official web portal to all federal, state and local government web resources and services.